Time;durP1;ratioP1;P1;durP2;ratioP2;P2;SDS_P1;SDS_P2;PMS_P1;PMS_P2;Temp;Humidity;BMP_temperature;BMP_pressure;BME280_temperature;BME280_humidity;BME280_pressure;Samples;Min_cycle;Max_cycle;Signal;HPM_P1;HPM_P2
2023/06/30 00:01:14;;;;;;;;;;;22.70;71.40;;;;;;6307534;22;19903;-73
2023/06/30 00:03:39;;;;;;;;;;;22.60;71.40;;;;;;6307721;22;19903;-73
2023/06/30 00:06:04;;;;;;;;;;;22.70;71.40;;;;;;6307445;22;19907;-74
2023/06/30 00:08:32;;;;;;;;;;;22.70;71.40;;;;;;6279896;22;19985;-74
2023/06/30 00:10:57;;;;;;;;;;;22.70;71.40;;;;;;6307430;22;19911;-73
2023/06/30 00:13:23;;;;;;;;;;;22.60;71.10;;;;;;6307516;22;19903;-73
2023/06/30 00:15:48;;;;;;;;;;;22.60;71.10;;;;;;6307322;22;19922;-74
2023/06/30 00:18:14;;;;;;;;;;;22.50;71.00;;;;;;6307770;22;19925;-74
2023/06/30 00:20:39;;;;;;;;;;;22.50;71.10;;;;;;6280283;22;19981;-74
2023/06/30 00:23:04;;;;;;;;;;;22.40;71.00;;;;;;6307227;22;19973;-73
2023/06/30 00:25:30;;;;;;;;;;;22.30;71.10;;;;;;6307806;22;19911;-74
2023/06/30 00:27:55;;;;;;;;;;;22.30;71.10;;;;;;6307273;22;19907;-73
2023/06/30 00:30:21;;;;;;;;;;;22.30;71.00;;;;;;6307753;22;19998;-74
2023/06/30 00:32:46;;;;;;;;;;;22.30;71.00;;;;;;6280511;22;19903;-73
2023/06/30 00:35:12;;;;;;;;;;;22.30;71.20;;;;;;6280321;22;19911;-73
2023/06/30 00:37:37;;;;;;;;;;;22.20;71.20;;;;;;6307041;22;19907;-73
2023/06/30 00:40:03;;;;;;;;;;;22.10;71.10;;;;;;6279792;22;19990;-73
2023/06/30 00:42:28;;;;;;;;;;;22.10;71.10;;;;;;6307202;22;19977;-73
2023/06/30 00:44:54;;;;;;;;;;;22.10;71.10;;;;;;6307822;22;19985;-73
2023/06/30 00:47:19;;;;;;;;;;;22.10;71.10;;;;;;6307614;22;19978;-73
2023/06/30 00:49:45;;;;;;;;;;;22.00;71.20;;;;;;6279685;22;19937;-74
2023/06/30 00:52:10;;;;;;;;;;;22.00;71.00;;;;;;6306797;22;19903;-73
2023/06/30 00:54:36;;;;;;;;;;;21.90;71.10;;;;;;6307046;22;19917;-73
2023/06/30 00:57:04;;;;;;;;;;;21.90;71.00;;;;;;6307099;22;20286;-73
2023/06/30 00:59:30;;;;;;;;;;;21.90;71.00;;;;;;6307250;22;19914;-73
2023/06/30 01:02:02;;;;;;;;;;;21.80;71.00;;;;;;6307365;22;19907;-73
2023/06/30 01:04:37;;;;;;;;;;;21.80;70.90;;;;;;6307181;22;19907;-73
2023/06/30 01:07:05;;;;;;;;;;;21.80;71.10;;;;;;6306836;22;19907;-74
2023/06/30 01:09:36;;;;;;;;;;;21.70;71.10;;;;;;6279281;22;19911;-73
2023/06/30 01:12:02;;;;;;;;;;;21.70;71.10;;;;;;6306834;22;19910;-74
2023/06/30 01:14:29;;;;;;;;;;;21.70;71.10;;;;;;6307231;22;20229;-74
2023/06/30 01:16:54;;;;;;;;;;;21.70;71.10;;;;;;6307000;22;19907;-74
2023/06/30 01:19:26;;;;;;;;;;;21.70;71.10;;;;;;6306809;22;19911;-74
2023/06/30 01:21:54;;;;;;;;;;;21.60;71.30;;;;;;6306744;22;19914;-74
2023/06/30 01:24:20;;;;;;;;;;;21.60;71.20;;;;;;6306712;22;19935;-75
2023/06/30 01:26:49;;;;;;;;;;;21.60;71.10;;;;;;6279187;22;19990;-74
2023/06/30 01:29:15;;;;;;;;;;;21.60;71.20;;;;;;6306668;22;20004;-75
2023/06/30 01:31:43;;;;;;;;;;;21.60;71.30;;;;;;6306660;22;19950;-74
2023/06/30 01:34:08;;;;;;;;;;;21.50;71.10;;;;;;6306585;22;19941;-75
2023/06/30 01:36:34;;;;;;;;;;;21.50;71.10;;;;;;6306579;22;19911;-75
2023/06/30 01:38:59;;;;;;;;;;;21.50;71.00;;;;;;6306722;22;19907;-75
2023/06/30 01:41:25;;;;;;;;;;;21.40;71.00;;;;;;6306522;22;19921;-75
2023/06/30 01:43:51;;;;;;;;;;;21.40;70.80;;;;;;6278949;22;19938;-75
2023/06/30 01:46:16;;;;;;;;;;;21.40;70.70;;;;;;6306520;22;19906;-75
2023/06/30 01:48:43;;;;;;;;;;;21.30;70.80;;;;;;6279122;22;19907;-75
2023/06/30 01:51:10;;;;;;;;;;;21.30;71.00;;;;;;6306439;22;19913;-75
2023/06/30 01:53:36;;;;;;;;;;;21.30;71.00;;;;;;6306354;22;19907;-75
2023/06/30 01:56:01;;;;;;;;;;;21.30;71.00;;;;;;6306633;22;19917;-75
2023/06/30 01:58:26;;;;;;;;;;;21.30;71.10;;;;;;6306389;22;19910;-75
2023/06/30 02:00:52;;;;;;;;;;;21.30;71.20;;;;;;6306710;22;19915;-75
2023/06/30 02:03:17;;;;;;;;;;;21.20;71.30;;;;;;6278755;22;19907;-75
2023/06/30 02:05:43;;;;;;;;;;;21.30;71.10;;;;;;6306903;22;19942;-75
2023/06/30 02:08:08;;;;;;;;;;;21.20;71.30;;;;;;6306135;22;19956;-76
2023/06/30 02:10:35;;;;;;;;;;;21.30;71.40;;;;;;6306860;22;19981;-76
2023/06/30 02:13:00;;;;;;;;;;;21.30;71.40;;;;;;6306236;22;19903;-76
2023/06/30 02:15:26;;;;;;;;;;;21.30;71.30;;;;;;6306679;22;20309;-76
2023/06/30 02:17:51;;;;;;;;;;;21.30;71.10;;;;;;6306103;22;20321;-76
2023/06/30 02:20:17;;;;;;;;;;;21.30;70.90;;;;;;6306590;22;19911;-76
2023/06/30 02:22:43;;;;;;;;;;;21.30;71.10;;;;;;6278752;22;20339;-77
2023/06/30 02:25:08;;;;;;;;;;;21.20;70.90;;;;;;6306656;22;19985;-77
2023/06/30 02:27:34;;;;;;;;;;;21.20;71.00;;;;;;6278858;22;19982;-77
2023/06/30 02:30:04;;;;;;;;;;;21.20;71.10;;;;;;6306300;22;19915;-77
2023/06/30 02:32:31;;;;;;;;;;;21.20;71.00;;;;;;6306240;22;20372;-78
2023/06/30 02:34:56;;;;;;;;;;;21.20;70.90;;;;;;6306424;22;19996;-77
2023/06/30 02:37:22;;;;;;;;;;;21.20;70.90;;;;;;6306330;22;19903;-77
2023/06/30 02:39:47;;;;;;;;;;;21.10;71.00;;;;;;6306402;22;20182;-78
2023/06/30 02:42:12;;;;;;;;;;;21.10;71.10;;;;;;6279577;22;19957;-77
2023/06/30 02:44:38;;;;;;;;;;;21.10;71.10;;;;;;6306493;22;19922;-79
2023/06/30 02:47:03;;;;;;;;;;;21.10;71.10;;;;;;6278536;22;20320;-77
2023/06/30 02:49:29;;;;;;;;;;;21.10;71.10;;;;;;6306276;22;19914;-77
2023/06/30 02:51:55;;;;;;;;;;;21.00;71.00;;;;;;6306164;22;19903;-77
2023/06/30 02:54:20;;;;;;;;;;;21.10;71.10;;;;;;6306177;22;19918;-77
2023/06/30 02:56:46;;;;;;;;;;;21.00;71.10;;;;;;6278873;22;19990;-76
2023/06/30 02:59:11;;;;;;;;;;;21.00;71.20;;;;;;6306474;22;19918;-76
2023/06/30 03:01:37;;;;;;;;;;;21.00;71.20;;;;;;6278775;22;20360;-77
2023/06/30 03:04:03;;;;;;;;;;;21.10;71.30;;;;;;6306174;22;20286;-76
2023/06/30 03:06:29;;;;;;;;;;;21.10;71.20;;;;;;6306135;22;19906;-76
2023/06/30 03:08:55;;;;;;;;;;;21.10;71.40;;;;;;6305851;22;19965;-76
2023/06/30 03:11:20;;;;;;;;;;;21.10;71.30;;;;;;6306176;22;19903;-76
2023/06/30 03:13:46;;;;;;;;;;;21.10;71.20;;;;;;6278845;22;19903;-76
2023/06/30 03:16:12;;;;;;;;;;;21.10;71.30;;;;;;6278149;22;19907;-76
2023/06/30 03:18:37;;;;;;;;;;;21.00;71.20;;;;;;6305843;22;19903;-76
2023/06/30 03:21:03;;;;;;;;;;;21.10;71.00;;;;;;6278504;22;19903;-76
2023/06/30 03:23:28;;;;;;;;;;;21.00;71.10;;;;;;6278269;22;19907;-76
2023/06/30 03:25:54;;;;;;;;;;;21.00;71.30;;;;;;6306187;22;20317;-76
2023/06/30 03:28:19;;;;;;;;;;;21.10;71.30;;;;;;6305952;22;20411;-76
2023/06/30 03:30:45;;;;;;;;;;;21.00;71.10;;;;;;6306234;22;19911;-76
2023/06/30 03:33:10;;;;;;;;;;;21.10;71.20;;;;;;6305616;22;19926;-76
2023/06/30 03:35:35;;;;;;;;;;;21.10;71.10;;;;;;6306357;22;19915;-76
2023/06/30 03:38:01;;;;;;;;;;;21.00;70.90;;;;;;6305719;22;20012;-75
2023/06/30 03:40:26;;;;;;;;;;;21.00;70.90;;;;;;6306124;22;19911;-71
2023/06/30 03:42:52;;;;;;;;;;;20.90;70.70;;;;;;6278664;22;19938;-71
2023/06/30 03:45:17;;;;;;;;;;;20.80;70.60;;;;;;6306002;22;19911;-70
2023/06/30 03:47:43;;;;;;;;;;;20.70;70.50;;;;;;6305869;22;19906;-70
2023/06/30 03:50:08;;;;;;;;;;;20.50;70.50;;;;;;6305360;22;19919;-70
2023/06/30 03:52:34;;;;;;;;;;;20.30;70.40;;;;;;6305705;22;19903;-69
2023/06/30 03:54:59;;;;;;;;;;;20.30;70.80;;;;;;6305746;22;19994;-70
2023/06/30 03:57:25;;;;;;;;;;;20.20;71.30;;;;;;6306179;22;19977;-69
2023/06/30 03:59:51;;;;;;;;;;;20.10;71.70;;;;;;6305939;22;19987;-69
2023/06/30 04:02:16;;;;;;;;;;;20.10;71.90;;;;;;6305552;22;19906;-70
2023/06/30 04:04:41;;;;;;;;;;;20.10;71.70;;;;;;6305823;22;19918;-71
2023/06/30 04:07:07;;;;;;;;;;;20.00;71.80;;;;;;6305651;22;19920;-70
2023/06/30 04:09:32;;;;;;;;;;;20.00;71.90;;;;;;6305564;22;20233;-70
2023/06/30 04:11:58;;;;;;;;;;;20.00;71.80;;;;;;6305750;22;19907;-70
2023/06/30 04:14:23;;;;;;;;;;;20.00;71.90;;;;;;6305689;22;19911;-71
2023/06/30 04:16:49;;;;;;;;;;;20.10;72.10;;;;;;6305597;22;19914;-71
2023/06/30 04:19:14;;;;;;;;;;;20.10;72.00;;;;;;6305658;22;19911;-71
2023/06/30 04:21:40;;;;;;;;;;;20.10;71.80;;;;;;6305490;22;19910;-72
2023/06/30 04:24:05;;;;;;;;;;;20.10;71.80;;;;;;6305227;22;19911;-72
2023/06/30 04:26:31;;;;;;;;;;;20.10;71.80;;;;;;6279137;22;19903;-72
2023/06/30 04:28:56;;;;;;;;;;;20.00;71.90;;;;;;6307161;22;20240;-72
2023/06/30 04:31:22;;;;;;;;;;;20.00;72.00;;;;;;6307469;22;19907;-72
2023/06/30 04:33:47;;;;;;;;;;;20.00;71.90;;;;;;6307473;22;19903;-72
2023/06/30 04:36:13;;;;;;;;;;;20.00;72.00;;;;;;6279887;22;20313;-73
2023/06/30 04:38:39;;;;;;;;;;;20.00;72.10;;;;;;6307262;22;19907;-72
2023/06/30 04:41:05;;;;;;;;;;;20.00;71.90;;;;;;6307506;22;19981;-72
2023/06/30 04:43:30;;;;;;;;;;;20.00;72.00;;;;;;6307272;22;20344;-73
2023/06/30 04:45:57;;;;;;;;;;;20.00;72.10;;;;;;6307864;22;20088;-73
2023/06/30 04:48:22;;;;;;;;;;;20.00;72.10;;;;;;6307063;22;20329;-72
2023/06/30 04:50:48;;;;;;;;;;;20.00;72.00;;;;;;6307155;22;19921;-71
2023/06/30 04:53:13;;;;;;;;;;;20.00;72.10;;;;;;6307196;22;19910;-72
2023/06/30 04:55:39;;;;;;;;;;;20.00;72.20;;;;;;6279715;22;19918;-73
2023/06/30 04:58:04;;;;;;;;;;;20.10;72.30;;;;;;6307387;22;19907;-73
2023/06/30 05:00:29;;;;;;;;;;;20.10;72.30;;;;;;6307464;22;19993;-72
2023/06/30 05:02:56;;;;;;;;;;;20.10;72.50;;;;;;6307183;22;19997;-72
2023/06/30 05:05:21;;;;;;;;;;;20.10;72.30;;;;;;6307493;22;19917;-72
2023/06/30 05:07:47;;;;;;;;;;;20.20;72.60;;;;;;6307285;22;19982;-72
2023/06/30 05:10:13;;;;;;;;;;;20.30;72.60;;;;;;6307285;22;19919;-72
2023/06/30 05:12:39;;;;;;;;;;;20.30;72.50;;;;;;6307447;22;19931;-72
2023/06/30 05:15:05;;;;;;;;;;;20.40;72.50;;;;;;6307225;22;19911;-72
2023/06/30 05:17:30;;;;;;;;;;;20.40;72.30;;;;;;6306901;22;19910;-72
2023/06/30 05:19:56;;;;;;;;;;;20.40;72.30;;;;;;6279823;22;20032;-73
2023/06/30 05:22:21;;;;;;;;;;;20.50;72.40;;;;;;6306829;22;19910;-73
2023/06/30 05:24:47;;;;;;;;;;;20.50;72.20;;;;;;6306997;22;19956;-72
2023/06/30 05:27:14;;;;;;;;;;;20.50;72.30;;;;;;6307137;22;19903;-73
2023/06/30 05:29:39;;;;;;;;;;;20.50;72.10;;;;;;6306903;22;19968;-73
2023/06/30 05:32:05;;;;;;;;;;;20.50;72.00;;;;;;6279390;22;19907;-73
2023/06/30 05:34:30;;;;;;;;;;;20.50;71.80;;;;;;6306943;22;19911;-73
2023/06/30 05:36:56;;;;;;;;;;;20.50;71.80;;;;;;6306703;22;20064;-74
2023/06/30 05:39:22;;;;;;;;;;;20.50;71.70;;;;;;6279045;22;20033;-74
2023/06/30 05:41:47;;;;;;;;;;;20.50;71.80;;;;;;6279433;22;19977;-74
2023/06/30 05:44:13;;;;;;;;;;;20.50;71.90;;;;;;6279172;22;19911;-73
2023/06/30 05:46:38;;;;;;;;;;;20.60;72.00;;;;;;6306488;22;19907;-74
2023/06/30 05:49:05;;;;;;;;;;;20.70;72.10;;;;;;6278949;22;19919;-73
2023/06/30 05:51:32;;;;;;;;;;;20.70;72.10;;;;;;6279109;22;19945;-73
2023/06/30 05:53:57;;;;;;;;;;;20.80;72.20;;;;;;6306072;22;19911;-73
2023/06/30 05:56:23;;;;;;;;;;;20.90;72.20;;;;;;6306309;22;20325;-73
2023/06/30 05:58:48;;;;;;;;;;;21.00;72.00;;;;;;6306886;22;19914;-74
2023/06/30 06:01:14;;;;;;;;;;;21.00;71.90;;;;;;6306256;22;20229;-73
2023/06/30 06:03:39;;;;;;;;;;;21.10;71.90;;;;;;6306522;22;19903;-73
2023/06/30 06:06:06;;;;;;;;;;;21.10;72.00;;;;;;6305867;22;21285;-73
2023/06/30 06:08:32;;;;;;;;;;;21.20;71.90;;;;;;6306231;22;19982;-74
2023/06/30 06:10:57;;;;;;;;;;;21.20;71.60;;;;;;6306359;22;19918;-73
2023/06/30 06:13:38;;;;;;;;;;;21.20;71.80;;;;;;6306544;22;20309;-73
2023/06/30 06:16:04;;;;;;;;;;;21.20;71.80;;;;;;6306251;22;19960;-74
2023/06/30 06:18:30;;;;;;;;;;;21.20;71.50;;;;;;6278697;22;19907;-74
2023/06/30 06:20:56;;;;;;;;;;;21.20;71.70;;;;;;6279248;22;19914;-74
2023/06/30 06:23:22;;;;;;;;;;;21.20;71.60;;;;;;6306032;22;20300;-74
2023/06/30 06:25:48;;;;;;;;;;;21.20;71.70;;;;;;6278625;22;20280;-73
2023/06/30 06:28:13;;;;;;;;;;;21.30;71.50;;;;;;6306086;22;19907;-74
2023/06/30 06:30:38;;;;;;;;;;;21.30;71.60;;;;;;6305931;22;19910;-74
2023/06/30 06:33:04;;;;;;;;;;;21.30;71.90;;;;;;6278890;22;19911;-74
2023/06/30 06:35:29;;;;;;;;;;;21.40;71.70;;;;;;6278920;22;19910;-75
2023/06/30 06:37:55;;;;;;;;;;;21.50;71.40;;;;;;6278298;22;19914;-74
2023/06/30 06:40:20;;;;;;;;;;;21.50;71.10;;;;;;6278571;22;19945;-74
2023/06/30 06:42:46;;;;;;;;;;;21.60;70.90;;;;;;6278906;22;20244;-74
2023/06/30 06:45:12;;;;;;;;;;;21.60;71.30;;;;;;6278767;22;19914;-75
2023/06/30 06:47:56;;;;;;;;;;;21.80;71.70;;;;;;6306577;22;19907;-74
2023/06/30 06:50:21;;;;;;;;;;;21.90;71.80;;;;;;6305616;22;20388;-75
2023/06/30 06:52:47;;;;;;;;;;;22.00;71.80;;;;;;6306551;22;19907;-75
2023/06/30 06:55:12;;;;;;;;;;;22.10;72.00;;;;;;6306124;22;19993;-74
2023/06/30 06:57:38;;;;;;;;;;;22.20;71.80;;;;;;6306011;22;19907;-75
2023/06/30 07:00:04;;;;;;;;;;;22.30;71.70;;;;;;6278511;22;19914;-75
2023/06/30 07:02:29;;;;;;;;;;;22.30;71.50;;;;;;6306089;22;19911;-75
2023/06/30 07:04:55;;;;;;;;;;;22.30;71.00;;;;;;6305693;22;19907;-75
2023/06/30 07:07:20;;;;;;;;;;;22.40;70.80;;;;;;6306181;22;20005;-75
2023/06/30 07:09:46;;;;;;;;;;;22.40;70.90;;;;;;6305704;22;19918;-75
2023/06/30 07:12:11;;;;;;;;;;;22.50;70.90;;;;;;6278372;22;19959;-75
2023/06/30 07:14:36;;;;;;;;;;;22.70;70.90;;;;;;6306004;22;19907;-75
2023/06/30 07:17:02;;;;;;;;;;;22.90;71.60;;;;;;6305987;22;19911;-75
2023/06/30 07:19:27;;;;;;;;;;;23.20;71.50;;;;;;6305717;22;19907;-75
2023/06/30 07:21:53;;;;;;;;;;;23.30;71.10;;;;;;6306165;22;20403;-77
2023/06/30 07:24:18;;;;;;;;;;;23.40;70.60;;;;;;6305758;22;19918;-77
2023/06/30 07:26:44;;;;;;;;;;;23.50;70.70;;;;;;6306182;22;19907;-77
2023/06/30 07:29:09;;;;;;;;;;;23.70;71.20;;;;;;6305989;22;19946;-77
2023/06/30 07:31:35;;;;;;;;;;;23.80;70.90;;;;;;6278070;22;19942;-76
2023/06/30 07:34:00;;;;;;;;;;;24.00;71.20;;;;;;6305684;22;19914;-77
2023/06/30 07:36:25;;;;;;;;;;;24.20;71.00;;;;;;6306047;22;19952;-79
2023/06/30 07:38:51;;;;;;;;;;;24.30;70.50;;;;;;6305884;22;19915;-76
2023/06/30 07:41:16;;;;;;;;;;;24.50;70.80;;;;;;6305703;22;19907;-76
2023/06/30 07:43:42;;;;;;;;;;;24.70;71.00;;;;;;6279067;22;19907;-77
2023/06/30 07:46:07;;;;;;;;;;;24.90;70.40;;;;;;6278427;22;19934;-79
2023/06/30 07:48:33;;;;;;;;;;;25.00;69.70;;;;;;6305588;22;19911;-78
2023/06/30 07:50:58;;;;;;;;;;;25.00;69.20;;;;;;6276861;22;19958;-78
2023/06/30 07:53:24;;;;;;;;;;;25.20;69.80;;;;;;6278448;22;19942;-79
2023/06/30 07:55:49;;;;;;;;;;;25.30;69.20;;;;;;6305255;22;19915;-78
2023/06/30 07:58:15;;;;;;;;;;;25.30;69.00;;;;;;6278370;22;19911;-79
2023/06/30 08:00:40;;;;;;;;;;;25.30;68.50;;;;;;6278165;22;19974;-80
2023/06/30 08:03:05;;;;;;;;;;;25.30;67.90;;;;;;6307551;22;19960;-80
2023/06/30 08:05:31;;;;;;;;;;;25.30;68.10;;;;;;6307777;22;19907;-80
2023/06/30 08:07:56;;;;;;;;;;;25.30;69.00;;;;;;6307763;22;19953;-80
2023/06/30 08:10:22;;;;;;;;;;;25.50;69.50;;;;;;6307922;22;20284;-80
2023/06/30 08:12:47;;;;;;;;;;;25.70;69.40;;;;;;6308588;22;19903;-76
2023/06/30 08:15:13;;;;;;;;;;;25.70;67.30;;;;;;6280116;22;19934;-78
2023/06/30 08:17:38;;;;;;;;;;;25.60;66.80;;;;;;6308423;22;20221;-80
2023/06/30 08:20:04;;;;;;;;;;;25.70;67.60;;;;;;6307596;22;19925;-82
2023/06/30 08:22:30;;;;;;;;;;;25.80;67.40;;;;;;6280279;22;20553;-80
2023/06/30 08:24:55;;;;;;;;;;;26.00;67.50;;;;;;6307384;22;19911;-80
2023/06/30 08:27:21;;;;;;;;;;;26.20;68.60;;;;;;6308260;22;19902;-80
2023/06/30 08:29:48;;;;;;;;;;;26.50;68.80;;;;;;6280051;22;20337;-80
2023/06/30 08:32:13;;;;;;;;;;;26.80;69.40;;;;;;6308002;22;19907;-79
2023/06/30 08:34:39;;;;;;;;;;;27.10;68.90;;;;;;6280037;22;19911;-79
2023/06/30 08:37:05;;;;;;;;;;;27.10;65.70;;;;;;6307771;22;19989;-80
2023/06/30 08:39:31;;;;;;;;;;;27.00;66.60;;;;;;6280468;22;19989;-80
2023/06/30 08:41:58;;;;;;;;;;;27.10;67.70;;;;;;6307555;22;19914;-79
2023/06/30 08:44:25;;;;;;;;;;;27.30;68.10;;;;;;6280111;22;19960;-80
2023/06/30 08:46:54;;;;;;;;;;;27.60;68.80;;;;;;6280318;22;20309;-79
2023/06/30 08:49:23;;;;;;;;;;;27.90;69.90;;;;;;6307080;22;19987;-80
2023/06/30 08:51:59;;;;;;;;;;;28.20;69.20;;;;;;6279630;22;19911;-79
2023/06/30 08:54:25;;;;;;;;;;;28.50;68.20;;;;;;6307036;22;19910;-80
2023/06/30 08:56:51;;;;;;;;;;;28.70;68.60;;;;;;6306994;22;19942;-81
2023/06/30 08:59:16;;;;;;;;;;;29.10;69.30;;;;;;6307035;22;20242;-79
2023/06/30 09:01:43;;;;;;;;;;;29.50;69.60;;;;;;6306845;22;19942;-81
2023/06/30 09:04:09;;;;;;;;;;;30.10;70.30;;;;;;6279795;22;19911;-82
2023/06/30 09:06:35;;;;;;;;;;;30.70;69.80;;;;;;6307069;22;19990;-81
2023/06/30 09:09:10;;;;;;;;;;;31.30;68.90;;;;;;6306955;22;19934;-80
2023/06/30 09:11:36;;;;;;;;;;;31.60;68.10;;;;;;6306582;22;19980;-79
2023/06/30 09:14:03;;;;;;;;;;;31.90;64.20;;;;;;6306151;22;19911;-80
2023/06/30 09:16:32;;;;;;;;;;;32.00;64.10;;;;;;6306739;22;20348;-76
2023/06/30 09:18:58;;;;;;;;;;;32.30;64.40;;;;;;6307210;22;19933;-79
2023/06/30 09:21:23;;;;;;;;;;;32.70;61.70;;;;;;6306562;22;19910;-80
2023/06/30 09:23:50;;;;;;;;;;;32.90;61.40;;;;;;6306418;22;20329;-81
2023/06/30 09:26:17;;;;;;;;;;;33.20;58.40;;;;;;6279115;22;19907;-79
2023/06/30 09:28:45;;;;;;;;;;;33.40;56.00;;;;;;6306499;22;19960;-80
2023/06/30 09:31:11;;;;;;;;;;;33.50;53.10;;;;;;6279322;22;19914;-80
2023/06/30 09:33:38;;;;;;;;;;;33.60;54.90;;;;;;6306627;22;19911;-79
2023/06/30 09:36:04;;;;;;;;;;;33.60;50.20;;;;;;6306634;22;20313;-79
2023/06/30 09:38:30;;;;;;;;;;;33.40;47.10;;;;;;6306508;22;19914;-77
2023/06/30 09:40:56;;;;;;;;;;;33.10;45.70;;;;;;6279584;22;20271;-79
2023/06/30 09:43:22;;;;;;;;;;;32.90;47.60;;;;;;6306451;22;19907;-78
2023/06/30 09:45:55;;;;;;;;;;;33.00;49.60;;;;;;6279034;22;19903;-78
2023/06/30 09:48:20;;;;;;;;;;;33.00;46.60;;;;;;6279067;22;20244;-79
2023/06/30 09:50:46;;;;;;;;;;;32.70;45.40;;;;;;6305092;22;19907;-78
2023/06/30 09:53:17;;;;;;;;;;;33.10;48.80;;;;;;6303204;22;20285;-78
2023/06/30 09:55:47;;;;;;;;;;;33.70;49.00;;;;;;6306353;22;19911;-79
2023/06/30 09:58:14;;;;;;;;;;;34.50;49.20;;;;;;6306197;22;19918;-78
2023/06/30 10:00:40;;;;;;;;;;;35.30;46.50;;;;;;6304826;22;19983;-78
2023/06/30 10:03:06;;;;;;;;;;;35.80;44.60;;;;;;6302322;22;19911;-79
2023/06/30 10:05:31;;;;;;;;;;;36.00;42.80;;;;;;6305883;22;19903;-78
2023/06/30 10:08:00;;;;;;;;;;;36.30;42.10;;;;;;6306598;22;19938;-79
2023/06/30 10:10:26;;;;;;;;;;;36.40;40.80;;;;;;6306183;22;19913;-79
2023/06/30 10:12:52;;;;;;;;;;;36.60;39.00;;;;;;6302835;22;19946;-78
2023/06/30 10:15:17;;;;;;;;;;;36.80;37.10;;;;;;6305812;22;20390;-78
2023/06/30 10:17:44;;;;;;;;;;;37.00;37.70;;;;;;6306702;22;19903;-78
2023/06/30 10:20:10;;;;;;;;;;;37.50;37.10;;;;;;6305731;22;19993;-77
2023/06/30 10:22:37;;;;;;;;;;;37.90;36.40;;;;;;6302970;22;19989;-75
2023/06/30 10:25:02;;;;;;;;;;;38.40;35.00;;;;;;6305057;22;19960;-78
2023/06/30 10:27:28;;;;;;;;;;;38.90;35.00;;;;;;6278820;22;19986;-77
2023/06/30 10:29:54;;;;;;;;;;;39.30;33.70;;;;;;6305559;22;19938;-77
2023/06/30 10:32:20;;;;;;;;;;;39.60;33.60;;;;;;6305310;22;19903;-76
2023/06/30 10:34:46;;;;;;;;;;;39.60;33.10;;;;;;6302064;22;19922;-76
2023/06/30 10:37:12;;;;;;;;;;;39.70;32.20;;;;;;6306396;22;19903;-77
2023/06/30 10:39:38;;;;;;;;;;;39.70;30.30;;;;;;6305517;22;20374;-76
2023/06/30 10:42:04;;;;;;;;;;;39.70;29.40;;;;;;6306126;22;19906;-77
2023/06/30 10:44:37;;;;;;;;;;;39.80;30.40;;;;;;6300543;22;19933;-75
2023/06/30 10:47:03;;;;;;;;;;;40.00;29.90;;;;;;6306427;22;19981;-77
2023/06/30 10:49:35;;;;;;;;;;;40.20;29.50;;;;;;6305555;22;20043;-74
2023/06/30 10:52:02;;;;;;;;;;;40.40;28.90;;;;;;6305990;22;19903;-76
2023/06/30 10:54:29;;;;;;;;;;;40.30;25.80;;;;;;6300967;22;20475;-76
2023/06/30 10:57:05;;;;;;;;;;;40.20;27.40;;;;;;6305813;22;19964;-76
2023/06/30 10:59:40;;;;;;;;;;;40.40;27.60;;;;;;6305478;22;19978;-76
2023/06/30 11:02:15;;;;;;;;;;;40.70;26.80;;;;;;6305874;22;19910;-76
2023/06/30 11:04:41;;;;;;;;;;;40.70;23.10;;;;;;6301546;22;19911;-75
2023/06/30 11:07:07;;;;;;;;;;;39.80;23.80;;;;;;6306233;22;20041;-75
2023/06/30 11:09:48;;;;;;;;;;;39.00;22.60;;;;;;6305339;22;19918;-74
2023/06/30 11:12:20;;;;;;;;;;;38.10;22.60;;;;;;6278034;22;19913;-73
2023/06/30 11:14:55;;;;;;;;;;;37.30;23.10;;;;;;6301203;22;20411;-74
2023/06/30 11:17:21;;;;;;;;;;;37.00;24.30;;;;;;6305465;22;19907;-74
2023/06/30 11:20:05;;;;;;;;;;;37.10;24.50;;;;;;6305107;22;19914;-74
2023/06/30 11:22:31;;;;;;;;;;;37.10;24.50;;;;;;6303289;22;19952;-74
2023/06/30 11:24:57;;;;;;;;;;;37.30;24.90;;;;;;6303128;22;19918;-77
2023/06/30 11:27:22;;;;;;;;;;;37.50;24.00;;;;;;6305942;22;19953;-74
2023/06/30 11:29:49;;;;;;;;;;;37.70;24.50;;;;;;6305075;22;19964;-73
2023/06/30 11:32:15;;;;;;;;;;;37.90;24.10;;;;;;6305049;22;19943;-74
2023/06/30 11:34:41;;;;;;;;;;;38.20;24.00;;;;;;6301502;22;19911;-74
2023/06/30 11:37:06;;;;;;;;;;;38.40;23.10;;;;;;6307009;22;19914;-75
2023/06/30 11:39:33;;;;;;;;;;;38.50;23.30;;;;;;6306987;22;20041;-74
2023/06/30 11:41:59;;;;;;;;;;;38.70;23.60;;;;;;6307020;22;19922;-74
2023/06/30 11:44:24;;;;;;;;;;;39.00;22.10;;;;;;6304840;22;20245;-74
2023/06/30 11:46:50;;;;;;;;;;;39.10;22.00;;;;;;6307093;22;19907;-74
2023/06/30 11:49:16;;;;;;;;;;;39.10;20.80;;;;;;6307446;22;19911;-76
2023/06/30 11:51:41;;;;;;;;;;;39.10;20.30;;;;;;6279827;22;20275;-74
2023/06/30 11:54:07;;;;;;;;;;;39.10;20.90;;;;;;6303591;22;19907;-75
2023/06/30 11:56:33;;;;;;;;;;;39.20;21.20;;;;;;6279795;22;19910;-75
2023/06/30 11:58:58;;;;;;;;;;;39.30;21.30;;;;;;6307516;22;19984;-75
2023/06/30 12:01:24;;;;;;;;;;;39.50;21.40;;;;;;6306380;22;19907;-75
2023/06/30 12:03:59;;;;;;;;;;;39.70;21.60;;;;;;6275849;22;19911;-74
2023/06/30 12:06:26;;;;;;;;;;;39.90;21.50;;;;;;6307271;22;19907;-75
2023/06/30 12:08:51;;;;;;;;;;;39.80;18.90;;;;;;6307149;22;19907;-75
2023/06/30 12:11:17;;;;;;;;;;;39.40;19.90;;;;;;6307574;22;19973;-74
2023/06/30 12:13:44;;;;;;;;;;;39.10;19.70;;;;;;6303467;22;20215;-75
2023/06/30 12:16:09;;;;;;;;;;;38.70;19.90;;;;;;6306868;22;19918;-75
2023/06/30 12:18:38;;;;;;;;;;;38.40;19.90;;;;;;6307265;22;20329;-74
2023/06/30 12:21:10;;;;;;;;;;;37.90;19.70;;;;;;6306359;22;19907;-74
2023/06/30 12:23:43;;;;;;;;;;;37.60;20.20;;;;;;6302729;22;20328;-74
2023/06/30 12:26:09;;;;;;;;;;;37.20;19.50;;;;;;6306937;22;19914;-75
2023/06/30 12:28:34;;;;;;;;;;;36.90;20.30;;;;;;6307169;22;19938;-75
2023/06/30 12:30:59;;;;;;;;;;;36.90;20.60;;;;;;6306730;22;19994;-75
2023/06/30 12:33:25;;;;;;;;;;;37.10;20.60;;;;;;6303040;22;19907;-74
2023/06/30 12:35:50;;;;;;;;;;;37.20;21.20;;;;;;6306849;22;19910;-75
2023/06/30 12:38:17;;;;;;;;;;;37.30;20.20;;;;;;6307343;22;19907;-74
2023/06/30 12:40:43;;;;;;;;;;;37.40;20.60;;;;;;6306604;22;20235;-75
2023/06/30 12:43:09;;;;;;;;;;;37.70;20.60;;;;;;6302747;22;19949;-74
2023/06/30 12:45:34;;;;;;;;;;;37.80;20.60;;;;;;6306505;22;19933;-74
2023/06/30 12:47:59;;;;;;;;;;;38.00;20.10;;;;;;6306899;22;19907;-74
2023/06/30 12:50:25;;;;;;;;;;;38.00;20.00;;;;;;6306861;22;19990;-74
2023/06/30 12:52:51;;;;;;;;;;;38.10;19.90;;;;;;6303619;22;19907;-73
2023/06/30 12:55:19;;;;;;;;;;;38.10;19.40;;;;;;6305718;22;20252;-74
2023/06/30 12:57:45;;;;;;;;;;;38.10;19.60;;;;;;6307314;22;19982;-74
2023/06/30 13:00:11;;;;;;;;;;;38.20;19.90;;;;;;6306416;22;20332;-74
2023/06/30 13:02:37;;;;;;;;;;;38.30;19.60;;;;;;6305779;22;20279;-73
2023/06/30 13:05:03;;;;;;;;;;;38.00;18.70;;;;;;6304028;22;19941;-74
2023/06/30 13:07:31;;;;;;;;;;;37.40;18.90;;;;;;6307008;22;20090;-73
2023/06/30 13:09:58;;;;;;;;;;;36.80;19.50;;;;;;6279073;22;19921;-73
2023/06/30 13:12:26;;;;;;;;;;;36.50;20.30;;;;;;6305211;22;20343;-73
2023/06/30 13:14:54;;;;;;;;;;;36.30;20.30;;;;;;6303741;22;20210;-73
2023/06/30 13:17:20;;;;;;;;;;;36.10;20.30;;;;;;6306716;22;19990;-73
2023/06/30 13:19:46;;;;;;;;;;;35.80;20.90;;;;;;6306792;22;19914;-73
2023/06/30 13:22:13;;;;;;;;;;;35.70;20.10;;;;;;6306597;22;20379;-73
2023/06/30 13:24:39;;;;;;;;;;;35.50;20.90;;;;;;6301992;22;19911;-73
2023/06/30 13:27:04;;;;;;;;;;;35.50;21.20;;;;;;6306681;22;19949;-74
2023/06/30 13:29:31;;;;;;;;;;;35.60;21.60;;;;;;6306091;22;19917;-73
2023/06/30 13:31:57;;;;;;;;;;;35.80;21.30;;;;;;6306301;22;19913;-73
2023/06/30 13:34:22;;;;;;;;;;;36.10;21.30;;;;;;6302939;22;20297;-73
2023/06/30 13:36:48;;;;;;;;;;;36.20;21.40;;;;;;6306287;22;20280;-73
2023/06/30 13:39:13;;;;;;;;;;;36.10;21.20;;;;;;6306864;22;19949;-73
2023/06/30 13:41:38;;;;;;;;;;;36.00;21.10;;;;;;6306420;22;19965;-74
2023/06/30 13:44:04;;;;;;;;;;;35.80;21.40;;;;;;6302398;22;20318;-73
2023/06/30 13:46:29;;;;;;;;;;;35.30;21.30;;;;;;6305977;22;19907;-73
2023/06/30 13:48:55;;;;;;;;;;;34.80;21.90;;;;;;6306533;22;20016;-73
2023/06/30 13:51:21;;;;;;;;;;;34.80;21.90;;;;;;6305931;22;19907;-73
2023/06/30 13:53:46;;;;;;;;;;;34.70;22.00;;;;;;6301763;22;19929;-73
2023/06/30 13:56:12;;;;;;;;;;;34.70;22.40;;;;;;6305761;22;19921;-74
2023/06/30 13:58:37;;;;;;;;;;;34.70;22.60;;;;;;6306214;22;19907;-73
2023/06/30 14:01:03;;;;;;;;;;;34.80;22.70;;;;;;6305779;22;19907;-73
2023/06/30 14:03:28;;;;;;;;;;;35.00;22.80;;;;;;6301892;22;19921;-73
2023/06/30 14:05:53;;;;;;;;;;;35.30;22.90;;;;;;6278250;22;19918;-73
2023/06/30 14:08:20;;;;;;;;;;;35.30;22.50;;;;;;6306217;22;19998;-73
2023/06/30 14:10:46;;;;;;;;;;;35.20;22.60;;;;;;6306053;22;19911;-74